createdAt,value
2016-11-26T00:01:04.658Z,1008.05
2016-11-26T00:02:19.821Z,1008.02
2016-11-26T00:03:34.133Z,1007.99
2016-11-26T00:04:48.391Z,1008.03
2016-11-26T00:06:02.265Z,1008.05
2016-11-26T00:07:16.481Z,1008.05
2016-11-26T00:08:34.101Z,1008.01
2016-11-26T00:09:48.811Z,1007.97
2016-11-26T00:11:04.003Z,1007.96
2016-11-26T00:12:18.242Z,1007.96
2016-11-26T00:13:33.254Z,1007.98
2016-11-26T00:14:48.241Z,1007.96
2016-11-26T00:16:02.331Z,1008
2016-11-26T00:17:17.054Z,1007.94
2016-11-26T00:18:31.138Z,1007.98
2016-11-26T00:19:45.081Z,1008.02
2016-11-26T00:21:02.767Z,1008.01
2016-11-26T00:22:17.313Z,1008.13
2016-11-26T00:23:32.112Z,1008.02
2016-11-26T00:24:46.050Z,1008
2016-11-26T00:25:59.823Z,1008.01
2016-11-26T00:27:14.768Z,1008.07
2016-11-26T00:28:29.460Z,1008.03
2016-11-26T00:29:43.718Z,1008.05
2016-11-26T00:30:57.971Z,1008.08
2016-11-26T00:32:12.003Z,1008.01
2016-11-26T00:33:26.642Z,1008.03
2016-11-26T00:34:40.971Z,1007.97
2016-11-26T00:35:55.572Z,1008.07
2016-11-26T00:37:09.722Z,1008.09
2016-11-26T00:38:24.115Z,1008.08
2016-11-26T00:39:53.627Z,1008.04
2016-11-26T00:41:08.289Z,1008.15
2016-11-26T00:42:22.472Z,1008.01
2016-11-26T00:43:36.638Z,1008
2016-11-26T00:44:50.900Z,1008.01
2016-11-26T00:46:05.211Z,1008.01
2016-11-26T00:47:21.089Z,1008.06
2016-11-26T00:48:35.950Z,1008.04
2016-11-26T00:49:50.075Z,1008
2016-11-26T00:51:04.575Z,1007.98
2016-11-26T00:52:18.809Z,1008
2016-11-26T00:53:33.827Z,1008.07
2016-11-26T00:54:47.505Z,1008.06
2016-11-26T00:56:01.936Z,1007.99
2016-11-26T00:57:17.037Z,1008
2016-11-26T00:58:31.770Z,1008
2016-11-26T00:59:46.277Z,1008.07
2016-11-26T01:01:00.196Z,1007.94
2016-11-26T01:02:14.820Z,1007.97
2016-11-26T01:03:29.012Z,1008
2016-11-26T01:04:43.404Z,1008.05
2016-11-26T01:05:57.516Z,1008.06
2016-11-26T01:07:11.501Z,1008.02
2016-11-26T01:08:25.895Z,1008.08
2016-11-26T01:09:39.906Z,1008.05
2016-11-26T01:10:54.450Z,1008.09
2016-11-26T01:12:08.771Z,1008.05
2016-11-26T01:13:22.911Z,1008.1
2016-11-26T01:14:37.276Z,1008.05
2016-11-26T01:15:51.322Z,1008.08
2016-11-26T01:17:05.911Z,1008.05
2016-11-26T01:18:20.131Z,1008.05
2016-11-26T01:19:33.925Z,1008.1
2016-11-26T01:20:49.281Z,1008.13
2016-11-26T01:22:03.731Z,1008.08
2016-11-26T01:23:18.166Z,1008.1
2016-11-26T01:24:32.558Z,1008.11
2016-11-26T01:25:47.216Z,1008.09
2016-11-26T01:27:01.598Z,1008.05
2016-11-26T01:28:15.901Z,1008.1
2016-11-26T01:29:30.971Z,1008.08
2016-11-26T01:31:00.004Z,1008.11
2016-11-26T01:32:14.581Z,1008.04
2016-11-26T01:33:28.510Z,1008.08
2016-11-26T01:34:42.873Z,1008.04
2016-11-26T01:35:57.028Z,1008.05
2016-11-26T01:37:11.240Z,1008.01
2016-11-26T01:38:27.987Z,1008.02
2016-11-26T01:39:42.133Z,1008.03
2016-11-26T01:40:56.058Z,1008.02
2016-11-26T01:42:10.485Z,1008.05
2016-11-26T01:43:24.634Z,1008.06
2016-11-26T01:44:39.022Z,1008.08
2016-11-26T01:45:53.473Z,1008.02
2016-11-26T01:47:08.114Z,1008.05
2016-11-26T01:48:22.656Z,1008.05
2016-11-26T01:49:37.662Z,1008.08
2016-11-26T01:50:52.009Z,1008.04
2016-11-26T01:52:05.973Z,1008.04
2016-11-26T01:53:35.722Z,1008.03
2016-11-26T01:54:50.677Z,1008.14
2016-11-26T01:56:05.136Z,1008.05
2016-11-26T01:57:19.721Z,1008.06
2016-11-26T01:58:33.772Z,1008.06
2016-11-26T01:59:47.752Z,1008.11
2016-11-26T02:01:02.522Z,1008.09
2016-11-26T02:02:16.949Z,1008.07
2016-11-26T02:03:31.358Z,1008.12
2016-11-26T02:04:45.631Z,1008.06
2016-11-26T02:06:00.052Z,1008.07
2016-11-26T02:07:14.360Z,1008.03
2016-11-26T02:08:29.105Z,1008.04
2016-11-26T02:09:43.517Z,1008.04
2016-11-26T02:10:57.565Z,1008.01
2016-11-26T02:12:11.675Z,1008.02
2016-11-26T02:13:26.184Z,1008.02
2016-11-26T02:14:40.299Z,1007.97
2016-11-26T02:15:54.992Z,1007.98
2016-11-26T02:17:09.500Z,1007.99
2016-11-26T02:18:23.506Z,1007.99
2016-11-26T02:19:37.627Z,1008.01
2016-11-26T02:20:52.033Z,1007.96
2016-11-26T02:22:06.411Z,1007.97
2016-11-26T02:23:20.540Z,1007.95
2016-11-26T02:24:34.941Z,1008
2016-11-26T02:25:49.314Z,1007.97
2016-11-26T02:27:04.034Z,1008.01
2016-11-26T02:28:18.602Z,1007.98
2016-11-26T02:29:32.652Z,1008.07
2016-11-26T02:30:46.943Z,1007.99
2016-11-26T02:32:01.289Z,1007.93
2016-11-26T02:33:15.679Z,1007.95
2016-11-26T02:34:29.896Z,1007.97
2016-11-26T02:35:44.073Z,1008
2016-11-26T02:36:58.344Z,1007.97
2016-11-26T02:38:12.616Z,1008.01
2016-11-26T02:39:27.025Z,1007.93
2016-11-26T02:40:41.308Z,1007.95
2016-11-26T02:41:55.669Z,1007.87
2016-11-26T02:43:09.707Z,1007.96
2016-11-26T02:44:23.943Z,1007.9
2016-11-26T02:45:38.303Z,1007.88
2016-11-26T02:46:52.227Z,1007.87
2016-11-26T02:48:06.352Z,1007.83
2016-11-26T02:49:20.724Z,1007.82
2016-11-26T02:50:34.977Z,1007.83
2016-11-26T02:51:49.083Z,1007.88
2016-11-26T02:53:03.187Z,1007.76
2016-11-26T02:54:17.210Z,1007.87
2016-11-26T02:55:33.284Z,1007.77
2016-11-26T02:56:47.943Z,1007.78
2016-11-26T02:58:02.817Z,1007.78
2016-11-26T02:59:16.705Z,1007.75
2016-11-26T03:00:30.782Z,1007.77
2016-11-26T03:01:45.210Z,1007.68
2016-11-26T03:02:59.903Z,1007.63
2016-11-26T03:04:13.927Z,1007.67
2016-11-26T03:05:28.312Z,1007.6
2016-11-26T03:06:42.334Z,1007.66
2016-11-26T03:07:56.362Z,1007.66
2016-11-26T03:09:10.896Z,1007.62
2016-11-26T03:10:24.926Z,1007.66
2016-11-26T03:11:39.272Z,1007.63
2016-11-26T03:16:50.689Z,1007.54
2016-11-26T03:18:04.760Z,1007.58
2016-11-26T03:19:18.622Z,1007.54
2016-11-26T03:20:32.658Z,1007.55
2016-11-26T03:21:47.487Z,1007.52
2016-11-26T03:23:02.211Z,1007.52
2016-11-26T03:24:16.237Z,1007.57
2016-11-26T03:25:30.623Z,1007.57
2016-11-26T03:26:44.655Z,1007.6
2016-11-26T03:28:13.767Z,1007.51
2016-11-26T03:29:29.511Z,1007.55
2016-11-26T03:30:43.775Z,1007.56
2016-11-26T03:31:58.032Z,1007.5
2016-11-26T03:33:12.061Z,1007.45
2016-11-26T03:34:26.133Z,1007.42
2016-11-26T03:38:38.127Z,1007.43
2016-11-26T03:42:50.324Z,1007.45
2016-11-26T03:44:04.359Z,1007.45
2016-11-26T03:45:18.407Z,1007.46
2016-11-26T03:46:32.719Z,1007.43
2016-11-26T03:47:47.108Z,1007.39
2016-11-26T03:49:01.453Z,1007.45
2016-11-26T03:50:15.470Z,1007.35
2016-11-26T03:51:29.480Z,1007.41
2016-11-26T03:52:58.556Z,1007.42
2016-11-26T03:54:12.958Z,1007.41
2016-11-26T03:55:26.986Z,1007.48
2016-11-26T03:56:41.016Z,1007.4
2016-11-26T03:58:09.804Z,1007.4
2016-11-26T03:59:24.524Z,1007.33
2016-11-26T04:00:38.682Z,1007.41
2016-11-26T04:01:53.131Z,1007.41
2016-11-26T04:03:07.370Z,1007.38
2016-11-26T04:04:21.446Z,1007.37
2016-11-26T04:08:33.724Z,1007.34
2016-11-26T04:09:47.812Z,1007.37
2016-11-26T04:11:02.496Z,1007.37
2016-11-26T04:12:16.545Z,1007.32
2016-11-26T04:13:30.711Z,1007.34
2016-11-26T04:14:44.733Z,1007.34
2016-11-26T04:15:58.959Z,1007.37
2016-11-26T04:17:13.715Z,1007.34
2016-11-26T04:18:30.782Z,1007.37
2016-11-26T04:20:00.299Z,1007.34
2016-11-26T04:21:14.405Z,1007.34
2016-11-26T04:22:29.592Z,1007.36
2016-11-26T04:23:43.601Z,1007.39
2016-11-26T04:25:12.446Z,1007.36
2016-11-26T04:26:26.812Z,1007.35
2016-11-26T04:27:41.199Z,1007.42
2016-11-26T04:28:55.892Z,1007.37
2016-11-26T04:30:09.929Z,1007.29
2016-11-26T04:31:24.360Z,1007.3
2016-11-26T04:32:38.430Z,1007.37
2016-11-26T04:33:52.820Z,1007.34
2016-11-26T04:35:07.526Z,1007.32
2016-11-26T04:36:21.628Z,1007.33
2016-11-26T04:37:35.720Z,1007.31
2016-11-26T04:38:49.726Z,1007.33
2016-11-26T04:40:03.793Z,1007.32
2016-11-26T04:41:18.865Z,1007.34
2016-11-26T04:42:33.301Z,1007.29
2016-11-26T04:43:47.340Z,1007.34
2016-11-26T04:45:01.392Z,1007.36
2016-11-26T04:46:15.500Z,1007.36
2016-11-26T04:47:30.162Z,1007.35
2016-11-26T04:48:44.365Z,1007.36
2016-11-26T04:49:58.729Z,1007.37
2016-11-26T04:51:12.860Z,1007.34
2016-11-26T04:52:26.974Z,1007.31
2016-11-26T04:53:41.638Z,1007.34
2016-11-26T04:54:55.659Z,1007.39
2016-11-26T04:56:09.699Z,1007.34
2016-11-26T04:57:24.113Z,1007.35
2016-11-26T04:58:38.178Z,1007.41
2016-11-26T04:59:52.820Z,1007.35
2016-11-26T05:01:06.851Z,1007.39
2016-11-26T05:02:20.878Z,1007.38
2016-11-26T05:03:36.073Z,1007.29
2016-11-26T05:04:50.473Z,1007.29
2016-11-26T05:06:05.153Z,1007.32
2016-11-26T05:07:19.191Z,1007.3
2016-11-26T05:08:33.221Z,1007.34
2016-11-26T05:09:47.579Z,1007.26
2016-11-26T05:11:02.298Z,1007.31
2016-11-26T05:12:17.036Z,1007.32
2016-11-26T05:13:31.459Z,1007.34
2016-11-26T05:14:45.842Z,1007.4
2016-11-26T05:16:00.280Z,1007.33
2016-11-26T05:17:14.316Z,1007.35
2016-11-26T05:18:28.975Z,1007.36
2016-11-26T05:19:57.781Z,1007.33
2016-11-26T05:21:11.844Z,1007.25
2016-11-26T05:22:25.904Z,1007.28
2016-11-26T05:23:40.623Z,1007.22
2016-11-26T05:24:54.994Z,1007.29
2016-11-26T05:26:09.023Z,1007.27
2016-11-26T05:27:23.099Z,1007.27
2016-11-26T05:28:37.677Z,1007.25
2016-11-26T05:30:07.268Z,1007.34
2016-11-26T05:31:21.223Z,1007.3
2016-11-26T05:32:50.007Z,1007.22
2016-11-26T05:34:04.025Z,1007.26
2016-11-26T05:35:18.671Z,1007.3
2016-11-26T05:38:48.727Z,1007.31
2016-11-26T05:40:02.706Z,1007.26
2016-11-26T05:41:17.137Z,1007.33
2016-11-26T05:42:31.159Z,1007.34
2016-11-26T05:43:45.638Z,1007.34
2016-11-26T05:44:59.743Z,1007.3
2016-11-26T05:46:13.726Z,1007.31
2016-11-26T05:47:28.170Z,1007.24
2016-11-26T05:48:42.567Z,1007.3
2016-11-26T05:49:56.642Z,1007.36
2016-11-26T05:51:10.598Z,1007.32
2016-11-26T05:52:24.641Z,1007.37
2016-11-26T05:53:39.006Z,1007.31
2016-11-26T05:54:53.382Z,1007.3
2016-11-26T05:58:35.524Z,1007.36
2016-11-26T05:59:49.883Z,1007.32
2016-11-26T06:01:04.735Z,1007.3
2016-11-26T06:02:18.807Z,1007.31
2016-11-26T06:03:32.835Z,1007.29
2016-11-26T06:04:46.797Z,1007.27
2016-11-26T06:06:01.160Z,1007.38
2016-11-26T06:07:15.793Z,1007.4
2016-11-26T06:08:29.677Z,1007.33
2016-11-26T06:09:43.826Z,1007.31
2016-11-26T06:10:57.859Z,1007.29
2016-11-26T06:12:12.445Z,1007.24
2016-11-26T06:13:26.931Z,1007.28
2016-11-26T06:14:41.252Z,1007.28
2016-11-26T06:15:55.023Z,1007.35
2016-11-26T06:17:09.408Z,1007.33
2016-11-26T06:18:23.888Z,1007.27
2016-11-26T06:19:37.852Z,1007.27
2016-11-26T06:20:52.827Z,1007.26
2016-11-26T06:22:06.828Z,1007.28
2016-11-26T06:23:21.098Z,1007.26
2016-11-26T06:24:35.311Z,1007.24
2016-11-26T06:25:49.340Z,1007.27
2016-11-26T06:27:03.692Z,1007.29
2016-11-26T06:28:18.056Z,1007.26
2016-11-26T06:29:32.196Z,1007.26
2016-11-26T06:30:46.444Z,1007.25
2016-11-26T06:32:00.725Z,1007.28
2016-11-26T06:33:15.485Z,1007.27
2016-11-26T06:34:29.707Z,1007.28
2016-11-26T06:35:44.011Z,1007.23
2016-11-26T06:36:58.700Z,1007.25
2016-11-26T06:38:12.952Z,1007.26
2016-11-26T06:39:27.321Z,1007.23
2016-11-26T06:40:41.356Z,1007.23
2016-11-26T06:41:55.510Z,1007.21
2016-11-26T06:43:09.990Z,1007.23
2016-11-26T06:44:24.222Z,1007.25
2016-11-26T06:45:38.716Z,1007.25
2016-11-26T06:46:53.337Z,1007.24
2016-11-26T06:48:07.777Z,1007.3
2016-11-26T06:49:22.343Z,1007.25
2016-11-26T06:50:36.204Z,1007.37
2016-11-26T06:51:50.461Z,1007.34
2016-11-26T06:53:04.774Z,1007.28
2016-11-26T06:54:19.599Z,1007.25
2016-11-26T06:55:36.038Z,1007.28
2016-11-26T06:56:50.443Z,1007.27
2016-11-26T06:58:04.497Z,1007.29
2016-11-26T06:59:18.771Z,1007.31
2016-11-26T07:00:32.772Z,1007.31
2016-11-26T07:01:47.185Z,1007.31
2016-11-26T07:03:01.329Z,1007.33
2016-11-26T07:04:15.519Z,1007.35
2016-11-26T07:05:30.108Z,1007.33
2016-11-26T07:06:44.840Z,1007.36
2016-11-26T07:07:59.666Z,1007.42
2016-11-26T07:09:13.809Z,1007.42
2016-11-26T07:10:28.101Z,1007.43
2016-11-26T07:11:42.259Z,1007.4
2016-11-26T07:13:26.699Z,1007.43
2016-11-26T07:14:40.923Z,1007.53
2016-11-26T07:15:55.357Z,1007.36
2016-11-26T07:17:09.200Z,1007.44
2016-11-26T07:18:23.436Z,1007.4
2016-11-26T07:19:40.732Z,1007.38
2016-11-26T07:21:09.815Z,1007.36
2016-11-26T07:22:24.018Z,1007.37
2016-11-26T07:23:38.036Z,1007.35
2016-11-26T07:24:51.953Z,1007.36
2016-11-26T07:26:07.625Z,1007.44
2016-11-26T07:27:22.790Z,1007.41
2016-11-26T07:28:37.365Z,1007.41
2016-11-26T07:29:53.198Z,1007.43
2016-11-26T07:31:07.692Z,1007.43
2016-11-26T07:32:22.225Z,1007.4
2016-11-26T07:33:36.505Z,1007.42
2016-11-26T07:34:50.587Z,1007.49
2016-11-26T07:36:04.959Z,1007.55
2016-11-26T07:37:18.998Z,1007.49
2016-11-26T07:38:33.058Z,1007.48
2016-11-26T07:39:47.234Z,1007.46
2016-11-26T07:41:01.230Z,1007.39
2016-11-26T07:42:15.346Z,1007.41
2016-11-26T07:43:29.598Z,1007.44
2016-11-26T07:44:43.983Z,1007.4
2016-11-26T07:45:58.422Z,1007.44
2016-11-26T07:47:13.381Z,1007.39
2016-11-26T07:48:27.710Z,1007.4
2016-11-26T07:49:41.910Z,1007.39
2016-11-26T07:50:56.460Z,1007.37
2016-11-26T07:52:11.526Z,1007.45
2016-11-26T07:53:25.821Z,1007.39
2016-11-26T07:54:40.607Z,1007.48
2016-11-26T07:55:54.376Z,1007.46
2016-11-26T07:57:09.669Z,1007.39
2016-11-26T07:58:23.940Z,1007.41
2016-11-26T07:59:37.988Z,1007.38
2016-11-26T08:00:52.180Z,1007.36
2016-11-26T08:02:06.884Z,1007.3
2016-11-26T08:03:23.126Z,1007.33
2016-11-26T08:04:37.422Z,1007.53
2016-11-26T08:05:51.759Z,1007.42
2016-11-26T08:07:05.650Z,1007.37
2016-11-26T08:08:19.912Z,1007.43
2016-11-26T08:09:34.682Z,1007.49
2016-11-26T08:10:48.683Z,1007.38
2016-11-26T08:12:02.846Z,1007.37
2016-11-26T08:13:19.317Z,1007.41
2016-11-26T08:14:33.520Z,1007.48
2016-11-26T08:15:47.709Z,1007.44
2016-11-26T08:17:01.664Z,1007.4
2016-11-26T08:18:15.583Z,1007.34
2016-11-26T08:19:29.288Z,1007.44
2016-11-26T08:20:43.002Z,1007.42
2016-11-26T08:21:57.428Z,1007.52
2016-11-26T08:23:11.775Z,1007.41
2016-11-26T08:24:25.751Z,1007.4
2016-11-26T08:25:39.758Z,1007.38
2016-11-26T08:26:53.787Z,1007.36
2016-11-26T08:28:08.121Z,1007.38
2016-11-26T08:29:22.247Z,1007.41
2016-11-26T08:30:36.289Z,1007.33
2016-11-26T08:31:50.318Z,1007.36
2016-11-26T08:33:04.404Z,1007.35
2016-11-26T08:34:18.565Z,1007.33
2016-11-26T08:35:32.697Z,1007.29
2016-11-26T08:36:47.414Z,1007.34
2016-11-26T08:38:01.741Z,1007.33
2016-11-26T08:39:15.841Z,1007.29
2016-11-26T08:40:29.992Z,1007.3
2016-11-26T08:41:44.052Z,1007.29
2016-11-26T08:42:58.864Z,1007.27
2016-11-26T08:44:12.860Z,1007.37
2016-11-26T08:45:26.673Z,1007.41
2016-11-26T08:46:40.869Z,1007.4
2016-11-26T08:47:54.738Z,1007.37
2016-11-26T08:49:09.081Z,1007.44
2016-11-26T08:50:23.322Z,1007.42
2016-11-26T08:51:37.139Z,1007.41
2016-11-26T08:52:51.671Z,1007.4
2016-11-26T08:54:05.941Z,1007.39
2016-11-26T08:55:20.285Z,1007.39
2016-11-26T08:56:34.945Z,1007.36
2016-11-26T08:57:49.409Z,1007.34
2016-11-26T08:59:04.124Z,1007.35
2016-11-26T09:00:18.609Z,1007.3
2016-11-26T09:01:32.962Z,1007.28
2016-11-26T09:02:47.497Z,1007.3
2016-11-26T09:04:01.731Z,1007.24
2016-11-26T09:05:16.389Z,1007.3
2016-11-26T09:06:30.376Z,1007.28
2016-11-26T09:07:44.564Z,1007.31
2016-11-26T09:08:58.789Z,1007.35
2016-11-26T09:10:12.834Z,1007.38
2016-11-26T09:11:27.709Z,1007.34
2016-11-26T09:12:42.082Z,1007.28
2016-11-26T09:13:56.607Z,1007.31
2016-11-26T09:15:10.844Z,1007.41
2016-11-26T09:16:25.148Z,1007.27
2016-11-26T09:17:39.390Z,1007.31
2016-11-26T09:18:53.975Z,1007.28
2016-11-26T09:20:07.824Z,1007.35
2016-11-26T09:21:21.739Z,1007.42
2016-11-26T09:22:36.122Z,1007.38
2016-11-26T09:23:51.131Z,1007.4
2016-11-26T09:25:05.170Z,1007.38
2016-11-26T09:26:19.239Z,1007.37
2016-11-26T09:27:33.100Z,1007.36
2016-11-26T09:28:47.232Z,1007.47
2016-11-26T09:30:04.198Z,1007.4
2016-11-26T09:31:18.236Z,1007.45
2016-11-26T09:32:32.721Z,1007.42
2016-11-26T09:33:47.227Z,1007.41
2016-11-26T09:35:01.470Z,1007.39
2016-11-26T09:36:16.364Z,1007.43
2016-11-26T09:37:30.703Z,1007.47
2016-11-26T09:38:45.154Z,1007.44
2016-11-26T09:40:00.183Z,1007.54
2016-11-26T09:41:14.846Z,1007.45
2016-11-26T09:42:29.364Z,1007.44
2016-11-26T09:43:44.190Z,1007.38
2016-11-26T09:44:58.499Z,1007.43
2016-11-26T09:46:12.723Z,1007.47
2016-11-26T09:47:26.793Z,1007.42
2016-11-26T09:48:40.916Z,1007.49
2016-11-26T09:49:55.287Z,1007.53
2016-11-26T09:51:09.946Z,1007.53
2016-11-26T09:52:23.823Z,1007.55
2016-11-26T09:53:37.550Z,1007.51
2016-11-26T09:54:52.302Z,1007.57
2016-11-26T09:56:06.402Z,1007.56
2016-11-26T09:57:20.744Z,1007.53
2016-11-26T09:58:35.058Z,1007.49
2016-11-26T09:59:50.975Z,1007.45
2016-11-26T10:01:05.721Z,1007.44
2016-11-26T10:02:19.884Z,1007.5
2016-11-26T10:03:33.991Z,1007.46
2016-11-26T10:04:48.304Z,1007.48
2016-11-26T10:06:03.117Z,1007.53
2016-11-26T10:07:18.704Z,1007.46
2016-11-26T10:08:32.661Z,1007.41
2016-11-26T10:09:47.366Z,1007.46
2016-11-26T10:11:01.736Z,1007.42
2016-11-26T10:12:15.474Z,1007.41
2016-11-26T10:13:30.901Z,1007.42
2016-11-26T10:14:45.296Z,1007.43
2016-11-26T10:15:59.738Z,1007.43
2016-11-26T10:17:13.719Z,1007.38
2016-11-26T10:18:27.418Z,1007.36
2016-11-26T10:19:41.811Z,1007.36
2016-11-26T10:20:55.926Z,1007.36
2016-11-26T10:22:10.329Z,1007.38
2016-11-26T10:23:24.092Z,1007.36
2016-11-26T10:24:39.165Z,1007.4
2016-11-26T10:25:53.779Z,1007.33
2016-11-26T10:27:08.292Z,1007.31
2016-11-26T10:28:22.373Z,1007.35
2016-11-26T10:29:36.522Z,1007.34
2016-11-26T10:30:51.028Z,1007.35
2016-11-26T10:32:05.646Z,1007.37
2016-11-26T10:33:20.552Z,1007.33
2016-11-26T10:34:34.477Z,1007.31
2016-11-26T10:35:48.835Z,1007.3
2016-11-26T10:37:03.454Z,1007.28
2016-11-26T10:38:18.208Z,1007.31
2016-11-26T10:39:32.200Z,1007.26
2016-11-26T10:40:46.845Z,1007.25
2016-11-26T10:42:01.152Z,1007.27
2016-11-26T10:43:15.559Z,1007.28
2016-11-26T10:44:29.805Z,1007.25
2016-11-26T10:45:44.228Z,1007.29
2016-11-26T10:47:00.316Z,1007.23
2016-11-26T10:48:15.211Z,1007.21
2016-11-26T10:49:30.313Z,1007.2
2016-11-26T10:50:44.655Z,1007.22
2016-11-26T10:51:58.968Z,1007.18
2016-11-26T10:53:13.799Z,1007.2
2016-11-26T10:54:28.323Z,1007.2
2016-11-26T10:55:43.090Z,1007.12
2016-11-26T10:56:59.171Z,1007.15
2016-11-26T10:58:13.769Z,1007.11
2016-11-26T10:59:28.026Z,1007.07
2016-11-26T11:00:42.383Z,1007.06
2016-11-26T11:01:56.827Z,1007.03
2016-11-26T11:03:11.383Z,1007.07
2016-11-26T11:04:25.945Z,1007.06
2016-11-26T11:05:40.847Z,1007.06
2016-11-26T11:06:55.177Z,1007.04
2016-11-26T11:08:09.653Z,1006.99
2016-11-26T11:09:24.198Z,1006.98
2016-11-26T11:10:38.713Z,1006.99
2016-11-26T11:11:52.929Z,1007
2016-11-26T11:13:07.546Z,1006.95
2016-11-26T11:14:21.906Z,1006.94
2016-11-26T11:15:36.727Z,1006.94
2016-11-26T11:16:51.434Z,1006.94
2016-11-26T11:18:25.281Z,1006.91
2016-11-26T11:19:49.556Z,1006.89
2016-11-26T11:21:17.222Z,1006.9
2016-11-26T11:22:33.599Z,1006.86
2016-11-26T11:24:02.700Z,1006.8
2016-11-26T11:25:17.014Z,1006.84
2016-11-26T11:26:32.113Z,1006.82
2016-11-26T11:27:46.149Z,1006.79
2016-11-26T11:29:01.859Z,1006.81
2016-11-26T11:30:16.845Z,1006.84
2016-11-26T11:31:31.440Z,1006.8
2016-11-26T11:32:46.596Z,1006.8
2016-11-26T11:34:01.023Z,1006.72
2016-11-26T11:35:15.702Z,1006.74
2016-11-26T11:36:30.022Z,1006.74
2016-11-26T11:37:44.385Z,1006.66
2016-11-26T11:38:58.699Z,1006.69
2016-11-26T11:40:13.359Z,1006.68
2016-11-26T11:41:28.139Z,1006.72
2016-11-26T11:42:42.221Z,1006.74
2016-11-26T11:43:56.627Z,1006.7
2016-11-26T11:45:11.374Z,1006.68
2016-11-26T11:46:26.417Z,1006.72
2016-11-26T11:47:40.891Z,1006.72
2016-11-26T11:48:55.914Z,1006.73
2016-11-26T11:50:10.958Z,1006.73
2016-11-26T11:51:26.026Z,1006.64
2016-11-26T11:52:40.732Z,1006.63
2016-11-26T11:53:54.835Z,1006.69
2016-11-26T11:55:09.584Z,1006.62
2016-11-26T11:56:23.839Z,1006.62
2016-11-26T11:57:38.589Z,1006.59
2016-11-26T11:58:52.660Z,1006.56
2016-11-26T12:00:08.242Z,1006.57
2016-11-26T12:01:22.786Z,1006.5
2016-11-26T12:02:37.167Z,1006.52
2016-11-26T12:03:51.623Z,1006.46
2016-11-26T12:05:08.224Z,1006.49
2016-11-26T12:06:22.920Z,1006.47
2016-11-26T12:07:37.193Z,1006.41
2016-11-26T12:08:51.807Z,1006.44
2016-11-26T12:10:06.678Z,1006.42
2016-11-26T12:11:20.932Z,1006.42
2016-11-26T12:12:34.976Z,1006.4
2016-11-26T12:13:50.689Z,1006.38
2016-11-26T12:15:05.515Z,1006.36
2016-11-26T12:16:20.442Z,1006.35
2016-11-26T12:17:35.135Z,1006.26
2016-11-26T12:18:51.744Z,1006.22
2016-11-26T12:20:06.595Z,1006.27
2016-11-26T12:21:21.084Z,1006.2
2016-11-26T12:22:35.357Z,1006.21
2016-11-26T12:23:49.818Z,1006.25
2016-11-26T12:25:04.192Z,1006.17
2016-11-26T12:26:18.757Z,1006.19
2016-11-26T12:27:33.911Z,1006.17
2016-11-26T12:28:48.509Z,1006.15
2016-11-26T12:30:03.081Z,1006.12
2016-11-26T12:31:17.102Z,1006.11
2016-11-26T12:32:31.394Z,1006.11
2016-11-26T12:33:46.135Z,1006.07
2016-11-26T12:35:01.021Z,1006.1
2016-11-26T12:36:14.998Z,1006.1
2016-11-26T12:37:29.693Z,1006.07
2016-11-26T12:38:43.849Z,1006.07
2016-11-26T12:39:58.517Z,1006.05
2016-11-26T12:41:13.580Z,1006.01
2016-11-26T12:42:28.000Z,1005.94
2016-11-26T12:43:41.746Z,1005.95
2016-11-26T12:44:56.350Z,1005.91
2016-11-26T12:46:11.093Z,1005.93
2016-11-26T12:47:26.882Z,1005.91
2016-11-26T12:48:41.058Z,1005.88
2016-11-26T12:49:55.562Z,1005.92
2016-11-26T12:51:09.648Z,1005.82
2016-11-26T12:52:24.739Z,1005.86
2016-11-26T12:53:39.191Z,1005.83
2016-11-26T12:54:53.281Z,1005.79
2016-11-26T12:56:08.427Z,1005.82
2016-11-26T12:57:22.938Z,1005.82
2016-11-26T12:58:37.985Z,1005.87
2016-11-26T12:59:52.368Z,1005.84
2016-11-26T13:01:07.186Z,1005.85
2016-11-26T13:02:21.655Z,1005.82
2016-11-26T13:03:36.175Z,1005.83
2016-11-26T13:04:51.002Z,1005.85
2016-11-26T13:06:05.559Z,1005.82
2016-11-26T13:07:20.038Z,1005.84
2016-11-26T13:08:49.196Z,1005.86
2016-11-26T13:10:03.538Z,1005.82
2016-11-26T13:11:18.944Z,1005.83
2016-11-26T13:12:33.576Z,1005.82
2016-11-26T13:13:47.753Z,1005.79
2016-11-26T13:15:01.741Z,1005.79
2016-11-26T13:16:16.555Z,1005.79
2016-11-26T13:17:31.085Z,1005.8
2016-11-26T13:18:45.240Z,1005.75
2016-11-26T13:19:59.309Z,1005.77
2016-11-26T13:21:13.145Z,1005.75
2016-11-26T13:22:29.363Z,1005.73
2016-11-26T13:23:43.566Z,1005.73
2016-11-26T13:24:58.221Z,1005.72
2016-11-26T13:26:12.828Z,1005.69
2016-11-26T13:27:27.163Z,1005.72
2016-11-26T13:28:41.259Z,1005.67
2016-11-26T13:29:55.979Z,1005.69
2016-11-26T13:31:10.178Z,1005.69
2016-11-26T13:32:24.167Z,1005.64
2016-11-26T13:33:38.280Z,1005.65
2016-11-26T13:34:54.062Z,1005.6
2016-11-26T13:36:09.178Z,1005.62
2016-11-26T13:37:23.547Z,1005.62
2016-11-26T13:38:38.449Z,1005.61
2016-11-26T13:39:52.309Z,1005.62
2016-11-26T13:41:06.534Z,1005.66
2016-11-26T13:42:21.140Z,1005.63
2016-11-26T13:43:36.373Z,1005.63
2016-11-26T13:44:51.430Z,1005.59
2016-11-26T13:46:09.112Z,1005.54
2016-11-26T13:47:28.923Z,1005.56
2016-11-26T13:48:50.012Z,1005.56
2016-11-26T13:50:06.874Z,1005.6
2016-11-26T13:51:21.946Z,1005.61
2016-11-26T13:52:37.086Z,1005.62
2016-11-26T13:55:20.605Z,1005.64
2016-11-26T13:56:35.299Z,1005.63
2016-11-26T13:57:49.757Z,1005.64
2016-11-26T13:59:04.063Z,1005.63
2016-11-26T14:00:19.335Z,1005.65
2016-11-26T14:01:51.551Z,1005.66
2016-11-26T14:03:05.667Z,1005.64
2016-11-26T14:04:20.598Z,1005.68
2016-11-26T14:05:34.762Z,1005.64
2016-11-26T14:06:49.838Z,1005.67
2016-11-26T14:08:03.968Z,1005.73
2016-11-26T14:09:17.874Z,1005.68
2016-11-26T14:10:33.502Z,1005.65
2016-11-26T14:11:50.097Z,1005.69
2016-11-26T14:13:06.120Z,1005.68
2016-11-26T14:14:20.748Z,1005.67
2016-11-26T14:15:36.094Z,1005.7
2016-11-26T14:16:55.660Z,1005.72
2016-11-26T14:18:11.089Z,1005.73
2016-11-26T14:19:26.357Z,1005.72
2016-11-26T14:20:41.518Z,1005.75
2016-11-26T14:21:57.405Z,1005.76
2016-11-26T14:23:12.952Z,1005.75
2016-11-26T14:24:27.577Z,1005.75
2016-11-26T14:25:42.290Z,1005.76
2016-11-26T14:26:57.181Z,1005.73
2016-11-26T14:28:12.379Z,1005.79
2016-11-26T14:29:27.879Z,1005.79
2016-11-26T14:30:43.487Z,1005.74
2016-11-26T14:31:57.800Z,1005.77
2016-11-26T14:33:12.257Z,1005.82
2016-11-26T14:34:27.943Z,1005.86
2016-11-26T14:35:46.595Z,1005.8
2016-11-26T14:37:01.253Z,1005.82
2016-11-26T14:38:16.040Z,1005.82
2016-11-26T14:39:30.637Z,1005.82
2016-11-26T14:40:48.120Z,1005.81
2016-11-26T14:42:02.934Z,1005.77
2016-11-26T14:43:17.097Z,1005.79
2016-11-26T14:44:31.955Z,1005.78
2016-11-26T14:45:47.255Z,1005.76
2016-11-26T14:47:01.559Z,1005.79
2016-11-26T14:48:16.512Z,1005.73
2016-11-26T14:49:35.928Z,1005.7
2016-11-26T14:50:50.795Z,1005.73
2016-11-26T14:52:05.403Z,1005.7
2016-11-26T14:53:19.975Z,1005.66
2016-11-26T14:54:34.463Z,1005.73
2016-11-26T14:55:49.232Z,1005.75
2016-11-26T14:57:03.112Z,1005.74
2016-11-26T14:58:17.281Z,1005.74
2016-11-26T14:59:31.705Z,1005.77
2016-11-26T15:00:45.817Z,1005.73
2016-11-26T15:02:00.838Z,1005.78
2016-11-26T15:03:14.927Z,1005.78
2016-11-26T15:04:30.113Z,1005.75
2016-11-26T15:05:44.289Z,1005.75
2016-11-26T15:06:59.074Z,1005.73
2016-11-26T15:08:13.757Z,1005.76
2016-11-26T15:09:30.026Z,1005.77
2016-11-26T15:10:44.726Z,1005.75
2016-11-26T15:11:59.541Z,1005.8
2016-11-26T15:13:13.806Z,1005.78
2016-11-26T15:14:28.469Z,1005.78
2016-11-26T15:15:42.961Z,1005.78
2016-11-26T15:16:57.417Z,1005.73
2016-11-26T15:18:11.336Z,1005.8
2016-11-26T15:19:25.761Z,1005.82
2016-11-26T15:20:40.730Z,1005.76
2016-11-26T15:21:55.018Z,1005.8
2016-11-26T15:23:09.030Z,1005.79
2016-11-26T15:24:38.163Z,1005.85
2016-11-26T15:25:53.160Z,1005.88
2016-11-26T15:27:07.071Z,1005.89
2016-11-26T15:28:21.279Z,1005.85
2016-11-26T15:29:35.333Z,1005.84